sensor_id;sensor_type;location;lat;lon;timestamp;pressure;altitude;pressure_sealevel;temperature
60731;BMP280;46580;52.114;11.674;2023-02-15T00:00:15;102600.25;;;2.39
60731;BMP280;46580;52.114;11.674;2023-02-15T00:02:41;102607.13;;;2.31
60731;BMP280;46580;52.114;11.674;2023-02-15T00:05:07;102603.09;;;2.16
60731;BMP280;46580;52.114;11.674;2023-02-15T00:07:33;102593.88;;;2.09
60731;BMP280;46580;52.114;11.674;2023-02-15T00:09:58;102593.16;;;2.01
60731;BMP280;46580;52.114;11.674;2023-02-15T00:12:23;102597.59;;;1.86
60731;BMP280;46580;52.114;11.674;2023-02-15T00:14:48;102584.91;;;1.85
60731;BMP280;46580;52.114;11.674;2023-02-15T00:17:14;102584.06;;;1.84
60731;BMP280;46580;52.114;11.674;2023-02-15T00:19:39;102583.28;;;1.81
60731;BMP280;46580;52.114;11.674;2023-02-15T00:22:05;102586.69;;;1.75
60731;BMP280;46580;52.114;11.674;2023-02-15T00:24:30;102582.50;;;1.74
60731;BMP280;46580;52.114;11.674;2023-02-15T00:26:56;102574.84;;;1.76
60731;BMP280;46580;52.114;11.674;2023-02-15T00:29:21;102574.84;;;1.76
60731;BMP280;46580;52.114;11.674;2023-02-15T00:31:47;102562.91;;;1.82
60731;BMP280;46580;52.114;11.674;2023-02-15T00:34:14;102571.50;;;1.74
60731;BMP280;46580;52.114;11.674;2023-02-15T00:36:40;102583.50;;;1.62
60731;BMP280;46580;52.114;11.674;2023-02-15T00:39:06;102577.59;;;1.61
60731;BMP280;46580;52.114;11.674;2023-02-15T00:41:32;102567.44;;;1.61
60731;BMP280;46580;52.114;11.674;2023-02-15T00:43:57;102569.91;;;1.66
60731;BMP280;46580;52.114;11.674;2023-02-15T00:46:23;102575.84;;;1.63
60731;BMP280;46580;52.114;11.674;2023-02-15T00:48:48;102576.75;;;1.59
60731;BMP280;46580;52.114;11.674;2023-02-15T00:51:14;102576.78;;;1.56
60731;BMP280;46580;52.114;11.674;2023-02-15T00:53:39;102579.41;;;1.49
60731;BMP280;46580;52.114;11.674;2023-02-15T00:56:05;102581.09;;;1.48
60731;BMP280;46580;52.114;11.674;2023-02-15T00:58:31;102576.09;;;1.43
60731;BMP280;46580;52.114;11.674;2023-02-15T01:01:03;102577.78;;;1.44
60731;BMP280;46580;52.114;11.674;2023-02-15T01:03:28;102567.69;;;1.38
60731;BMP280;46580;52.114;11.674;2023-02-15T01:05:55;102572.78;;;1.38
60731;BMP280;46580;52.114;11.674;2023-02-15T01:08:20;102559.25;;;1.37
60731;BMP280;46580;52.114;11.674;2023-02-15T01:10:45;102560.16;;;1.32
60731;BMP280;46580;52.114;11.674;2023-02-15T01:13:13;102560.22;;;1.28
60731;BMP280;46580;52.114;11.674;2023-02-15T01:15:38;102563.63;;;1.22
60731;BMP280;46580;52.114;11.674;2023-02-15T01:18:05;102561.16;;;1.15
60731;BMP280;46580;52.114;11.674;2023-02-15T01:20:34;102557.75;;;1.20
60731;BMP280;46580;52.114;11.674;2023-02-15T01:23:02;102551.91;;;1.12
60731;BMP280;46580;52.114;11.674;2023-02-15T01:25:27;102554.44;;;1.10
60731;BMP280;46580;52.114;11.674;2023-02-15T01:27:53;102553.69;;;1.02
60731;BMP280;46580;52.114;11.674;2023-02-15T01:30:18;102545.34;;;0.94
60731;BMP280;46580;52.114;11.674;2023-02-15T01:32:43;102545.28;;;0.98
60731;BMP280;46580;52.114;11.674;2023-02-15T01:35:09;102534.28;;;0.99
60731;BMP280;46580;52.114;11.674;2023-02-15T01:37:35;102541.88;;;1.01
60731;BMP280;46580;52.114;11.674;2023-02-15T01:40:03;102535.91;;;1.06
60731;BMP280;46580;52.114;11.674;2023-02-15T01:42:29;102528.09;;;1.22
60731;BMP280;46580;52.114;11.674;2023-02-15T01:45:00;102533.22;;;1.19
60731;BMP280;46580;52.114;11.674;2023-02-15T01:47:38;102527.16;;;1.32
60731;BMP280;46580;52.114;11.674;2023-02-15T01:50:22;102528.16;;;1.18
60731;BMP280;46580;52.114;11.674;2023-02-15T01:52:52;102521.50;;;1.10
60731;BMP280;46580;52.114;11.674;2023-02-15T01:55:22;102514.06;;;0.93
60731;BMP280;46580;52.114;11.674;2023-02-15T01:57:49;102521.63;;;0.95
60731;BMP280;46580;52.114;11.674;2023-02-15T02:00:15;102506.41;;;0.95
60731;BMP280;46580;52.114;11.674;2023-02-15T02:02:43;102503.03;;;0.96
60731;BMP280;46580;52.114;11.674;2023-02-15T02:05:10;102495.44;;;0.96
60731;BMP280;46580;52.114;11.674;2023-02-15T02:07:39;102492.91;;;0.96
60731;BMP280;46580;52.114;11.674;2023-02-15T02:10:11;102491.22;;;0.95
60731;BMP280;46580;52.114;11.674;2023-02-15T02:12:40;102494.59;;;0.95
60731;BMP280;46580;52.114;11.674;2023-02-15T02:15:09;102489.56;;;0.94
60731;BMP280;46580;52.114;11.674;2023-02-15T02:23:09;102482.81;;;0.90
60731;BMP280;46580;52.114;11.674;2023-02-15T02:37:17;102483.88;;;0.72
60731;BMP280;46580;52.114;11.674;2023-02-15T02:39:55;102485.59;;;0.67
60731;BMP280;46580;52.114;11.674;2023-02-15T02:45:24;102472.94;;;0.67
60731;BMP280;46580;52.114;11.674;2023-02-15T02:48:00;102470.38;;;0.68
60731;BMP280;46580;52.114;11.674;2023-02-15T02:50:29;102470.47;;;0.58
60731;BMP280;46580;52.114;11.674;2023-02-15T02:52:57;102463.66;;;0.61
60731;BMP280;46580;52.114;11.674;2023-02-15T02:55:30;102452.63;;;0.68
60731;BMP280;46580;52.114;11.674;2023-02-15T02:58:00;102455.28;;;0.59
60731;BMP280;46580;52.114;11.674;2023-02-15T03:00:31;102451.03;;;0.60
60731;BMP280;46580;52.114;11.674;2023-02-15T03:03:07;102456.03;;;0.67
60731;BMP280;46580;52.114;11.674;2023-02-15T03:05:37;102454.38;;;0.62
60731;BMP280;46580;52.114;11.674;2023-02-15T03:08:04;102451.88;;;0.59
60731;BMP280;46580;52.114;11.674;2023-02-15T03:10:32;102451.91;;;0.57
60731;BMP280;46580;52.114;11.674;2023-02-15T03:12:59;102445.06;;;0.64
60731;BMP280;46580;52.114;11.674;2023-02-15T03:15:38;102440.84;;;0.67
60731;BMP280;46580;52.114;11.674;2023-02-15T03:18:28;102439.19;;;0.62
60731;BMP280;46580;52.114;11.674;2023-02-15T03:20:58;102439.22;;;0.59
60731;BMP280;46580;52.114;11.674;2023-02-15T03:23:27;102437.50;;;0.61
60731;BMP280;46580;52.114;11.674;2023-02-15T03:26:02;102438.34;;;0.61
60731;BMP280;46580;52.114;11.674;2023-02-15T03:28:36;102435.66;;;0.77
60731;BMP280;46580;52.114;11.674;2023-02-15T03:31:05;102429.59;;;0.90
60731;BMP280;46580;52.114;11.674;2023-02-15T03:33:32;102430.44;;;0.89
60731;BMP280;46580;52.114;11.674;2023-02-15T03:38:43;102427.91;;;0.88
60731;BMP280;46580;52.114;11.674;2023-02-15T03:41:11;102420.38;;;0.83
60731;BMP280;46580;52.114;11.674;2023-02-15T03:43:57;102402.56;;;0.91
60731;BMP280;46580;52.114;11.674;2023-02-15T03:46:41;102405.91;;;0.93
60731;BMP280;46580;52.114;11.674;2023-02-15T03:51:41;102398.31;;;0.91
60731;BMP280;46580;52.114;11.674;2023-02-15T03:54:10;102410.31;;;0.74
60731;BMP280;46580;52.114;11.674;2023-02-15T03:56:40;102409.53;;;0.71
60731;BMP280;46580;52.114;11.674;2023-02-15T03:59:06;102407.00;;;0.70
60731;BMP280;46580;52.114;11.674;2023-02-15T04:04:42;102405.44;;;0.60
60731;BMP280;46580;52.114;11.674;2023-02-15T04:07:09;102402.91;;;0.58
60731;BMP280;46580;52.114;11.674;2023-02-15T04:09:35;102413.06;;;0.57
60731;BMP280;46580;52.114;11.674;2023-02-15T04:12:20;102397.84;;;0.58
60731;BMP280;46580;52.114;11.674;2023-02-15T04:14:45;102397.91;;;0.53
60731;BMP280;46580;52.114;11.674;2023-02-15T04:17:29;102390.38;;;0.45
60731;BMP280;46580;52.114;11.674;2023-02-15T04:19:54;102396.31;;;0.43
60731;BMP280;46580;52.114;11.674;2023-02-15T04:22:38;102396.28;;;0.44
60731;BMP280;46580;52.114;11.674;2023-02-15T04:25:22;102398.84;;;0.41
60731;BMP280;46580;52.114;11.674;2023-02-15T04:27:51;102390.41;;;0.41
60731;BMP280;46580;52.114;11.674;2023-02-15T04:30:20;102391.25;;;0.41
60731;BMP280;46580;52.114;11.674;2023-02-15T04:32:45;102394.63;;;0.42
60731;BMP280;46580;52.114;11.674;2023-02-15T04:35:12;102383.41;;;0.65
60731;BMP280;46580;52.114;11.674;2023-02-15T04:37:39;102384.97;;;0.77
60731;BMP280;46580;52.114;11.674;2023-02-15T04:40:06;102385.72;;;0.87
60731;BMP280;46580;52.114;11.674;2023-02-15T04:42:32;102389.97;;;0.82
60731;BMP280;46580;52.114;11.674;2023-02-15T04:44:57;102382.34;;;0.85
60731;BMP280;46580;52.114;11.674;2023-02-15T04:47:24;102382.34;;;0.85
60731;BMP280;46580;52.114;11.674;2023-02-15T04:49:49;102385.59;;;0.95
60731;BMP280;46580;52.114;11.674;2023-02-15T04:52:15;102384.66;;;1.02
60731;BMP280;46580;52.114;11.674;2023-02-15T04:54:42;102380.41;;;1.03
60731;BMP280;46580;52.114;11.674;2023-02-15T04:57:07;102387.16;;;1.05
60731;BMP280;46580;52.114;11.674;2023-02-15T04:59:33;102376.94;;;1.11
60731;BMP280;46580;52.114;11.674;2023-02-15T05:02:00;102378.69;;;1.08
60731;BMP280;46580;52.114;11.674;2023-02-15T05:04:25;102373.63;;;1.08
60731;BMP280;46580;52.114;11.674;2023-02-15T05:06:50;102364.34;;;1.04
60731;BMP280;46580;52.114;11.674;2023-02-15T05:09:16;102370.19;;;1.10
60731;BMP280;46580;52.114;11.674;2023-02-15T05:11:41;102363.41;;;1.12
60731;BMP280;46580;52.114;11.674;2023-02-15T05:14:07;102359.22;;;1.10
60731;BMP280;46580;52.114;11.674;2023-02-15T05:16:33;102361.66;;;1.15
60731;BMP280;46580;52.114;11.674;2023-02-15T05:18:59;102359.19;;;1.12
60731;BMP280;46580;52.114;11.674;2023-02-15T05:21:24;102362.69;;;1.03
60731;BMP280;46580;52.114;11.674;2023-02-15T05:23:52;102360.03;;;1.10
60731;BMP280;46580;52.114;11.674;2023-02-15T05:26:20;102364.34;;;1.07
60731;BMP280;46580;52.114;11.674;2023-02-15T05:29:04;102357.53;;;1.09
60731;BMP280;46580;52.114;11.674;2023-02-15T05:31:30;102372.78;;;1.06
60731;BMP280;46580;52.114;11.674;2023-02-15T05:33:55;102359.38;;;0.96
60731;BMP280;46580;52.114;11.674;2023-02-15T05:36:21;102355.97;;;0.99
60731;BMP280;46580;52.114;11.674;2023-02-15T05:38:46;102352.59;;;1.00
60731;BMP280;46580;52.114;11.674;2023-02-15T05:41:11;102344.94;;;1.01
60731;BMP280;46580;52.114;11.674;2023-02-15T05:43:37;102350.09;;;0.95
60731;BMP280;46580;52.114;11.674;2023-02-15T05:46:03;102351.81;;;0.93
60731;BMP280;46580;52.114;11.674;2023-02-15T05:48:30;102358.63;;;0.90
60731;BMP280;46580;52.114;11.674;2023-02-15T05:51:10;102355.22;;;0.94
60731;BMP280;46580;52.114;11.674;2023-02-15T05:53:37;102362.22;;;0.72
60731;BMP280;46580;52.114;11.674;2023-02-15T05:56:05;102349.72;;;0.55
60731;BMP280;46580;52.114;11.674;2023-02-15T05:58:34;102347.19;;;0.55
60731;BMP280;46580;52.114;11.674;2023-02-15T06:01:06;102348.97;;;0.48
60731;BMP280;46580;52.114;11.674;2023-02-15T06:03:31;102349.09;;;0.35
60731;BMP280;46580;52.114;11.674;2023-02-15T06:05:57;102350.44;;;0.68
60731;BMP280;46580;52.114;11.674;2023-02-15T06:08:22;102352.25;;;0.57
60731;BMP280;46580;52.114;11.674;2023-02-15T06:10:47;102354.94;;;0.42
60731;BMP280;46580;52.114;11.674;2023-02-15T06:13:13;102354.22;;;0.32
60731;BMP280;46580;52.114;11.674;2023-02-15T06:15:39;102349.09;;;0.36
60731;BMP280;46580;52.114;11.674;2023-02-15T06:18:04;102354.28;;;0.23
60731;BMP280;46580;52.114;11.674;2023-02-15T06:20:31;102361.03;;;0.22
60731;BMP280;46580;52.114;11.674;2023-02-15T06:22:56;102344.66;;;0.54
60731;BMP280;46580;52.114;11.674;2023-02-15T06:25:23;102356.63;;;0.43
60731;BMP280;46580;52.114;11.674;2023-02-15T06:27:51;102349.00;;;0.45
60731;BMP280;46580;52.114;11.674;2023-02-15T06:30:16;102345.78;;;0.31
60731;BMP280;46580;52.114;11.674;2023-02-15T06:32:42;102344.88;;;0.38
60731;BMP280;46580;52.114;11.674;2023-02-15T06:35:08;102347.44;;;0.34
60731;BMP280;46580;52.114;11.674;2023-02-15T06:37:33;102349.16;;;0.33
60731;BMP280;46580;52.114;11.674;2023-02-15T06:39:58;102338.97;;;0.35
60731;BMP280;46580;52.114;11.674;2023-02-15T06:42:24;102346.56;;;0.37
60731;BMP280;46580;52.114;11.674;2023-02-15T06:44:50;102339.69;;;0.48
60731;BMP280;46580;52.114;11.674;2023-02-15T06:47:16;102341.34;;;0.49
60731;BMP280;46580;52.114;11.674;2023-02-15T06:49:42;102343.09;;;0.44
60731;BMP280;46580;52.114;11.674;2023-02-15T06:52:13;102348.94;;;0.51
60731;BMP280;46580;52.114;11.674;2023-02-15T06:54:38;102343.81;;;0.55
60731;BMP280;46580;52.114;11.674;2023-02-15T06:57:05;102344.72;;;0.53
60731;BMP280;46580;52.114;11.674;2023-02-15T06:59:30;102344.81;;;0.42
60731;BMP280;46580;52.114;11.674;2023-02-15T07:01:57;102340.91;;;0.11
60731;BMP280;46580;52.114;11.674;2023-02-15T07:04:22;102347.66;;;0.12
60731;BMP280;46580;52.114;11.674;2023-02-15T07:06:48;102341.69;;;0.20
60731;BMP280;46580;52.114;11.674;2023-02-15T07:09:13;102353.69;;;-0.02
60731;BMP280;46580;52.114;11.674;2023-02-15T07:11:41;102348.75;;;-0.16
60731;BMP280;46580;52.114;11.674;2023-02-15T07:14:25;102345.31;;;-0.10
60731;BMP280;46580;52.114;11.674;2023-02-15T07:16:50;102345.13;;;0.13
60731;BMP280;46580;52.114;11.674;2023-02-15T07:19:16;102351.03;;;0.12
60731;BMP280;46580;52.114;11.674;2023-02-15T07:21:43;102336.81;;;-0.03
60731;BMP280;46580;52.114;11.674;2023-02-15T07:24:10;102335.84;;;0.12
60731;BMP280;46580;52.114;11.674;2023-02-15T07:26:37;102335.72;;;0.27
60731;BMP280;46580;52.114;11.674;2023-02-15T07:29:31;102330.59;;;0.30
60731;BMP280;46580;52.114;11.674;2023-02-15T07:31:57;102333.03;;;0.38
60731;BMP280;46580;52.114;11.674;2023-02-15T07:34:23;102328.00;;;0.36
60731;BMP280;46580;52.114;11.674;2023-02-15T07:36:50;102329.16;;;0.05
60731;BMP280;46580;52.114;11.674;2023-02-15T07:39:16;102324.75;;;0.22
60731;BMP280;46580;52.114;11.674;2023-02-15T07:41:41;102324.09;;;0.05
60731;BMP280;46580;52.114;11.674;2023-02-15T07:44:11;102312.94;;;0.22
60731;BMP280;46580;52.114;11.674;2023-02-15T07:46:37;102320.44;;;0.33
60731;BMP280;46580;52.114;11.674;2023-02-15T07:49:02;102312.72;;;0.41
60731;BMP280;46580;52.114;11.674;2023-02-15T07:51:28;102314.75;;;0.10
60731;BMP280;46580;52.114;11.674;2023-02-15T07:53:54;102315.72;;;-0.02
60731;BMP280;46580;52.114;11.674;2023-02-15T07:56:21;102320.84;;;-0.11
60731;BMP280;46580;52.114;11.674;2023-02-15T07:58:46;102315.97;;;-0.27
60731;BMP280;46580;52.114;11.674;2023-02-15T08:03:47;102313.78;;;0.23
60731;BMP280;46580;52.114;11.674;2023-02-15T08:06:13;102316.44;;;0.11
60731;BMP280;46580;52.114;11.674;2023-02-15T08:08:40;102315.75;;;-0.04
60731;BMP280;46580;52.114;11.674;2023-02-15T08:13:57;102309.69;;;0.13
60731;BMP280;46580;52.114;11.674;2023-02-15T08:16:42;102305.53;;;0.03
60731;BMP280;46580;52.114;11.674;2023-02-15T08:19:11;102307.28;;;0.00
60731;BMP280;46580;52.114;11.674;2023-02-15T08:21:40;102312.38;;;-0.06
60731;BMP280;46580;52.114;11.674;2023-02-15T08:24:07;102308.19;;;-0.10
60731;BMP280;46580;52.114;11.674;2023-02-15T08:26:34;102305.47;;;0.09
60731;BMP280;46580;52.114;11.674;2023-02-15T08:29:01;102301.03;;;0.30
60731;BMP280;46580;52.114;11.674;2023-02-15T08:31:28;102304.63;;;0.13
60731;BMP280;46580;52.114;11.674;2023-02-15T08:33:56;102291.75;;;0.31
60731;BMP280;46580;52.114;11.674;2023-02-15T08:36:24;102300.00;;;0.47
60731;BMP280;46580;52.114;11.674;2023-02-15T08:38:50;102297.41;;;0.53
60731;BMP280;46580;52.114;11.674;2023-02-15T08:41:18;102299.91;;;0.56
60731;BMP280;46580;52.114;11.674;2023-02-15T08:43:49;102303.19;;;0.62
60731;BMP280;46580;52.114;11.674;2023-02-15T08:46:17;102297.34;;;0.59
60731;BMP280;46580;52.114;11.674;2023-02-15T08:48:43;102292.91;;;0.75
60731;BMP280;46580;52.114;11.674;2023-02-15T08:51:12;102297.53;;;0.43
60731;BMP280;46580;52.114;11.674;2023-02-15T08:53:39;102292.47;;;0.41
60731;BMP280;46580;52.114;11.674;2023-02-15T08:56:05;102282.41;;;0.37
60731;BMP280;46580;52.114;11.674;2023-02-15T08:58:31;102289.91;;;0.44
60731;BMP280;46580;52.114;11.674;2023-02-15T09:00:57;102281.47;;;0.47
60731;BMP280;46580;52.114;11.674;2023-02-15T09:03:22;102280.38;;;0.67
60731;BMP280;46580;52.114;11.674;2023-02-15T09:05:49;102284.03;;;0.42
60731;BMP280;46580;52.114;11.674;2023-02-15T09:08:15;102276.25;;;0.57
60731;BMP280;46580;52.114;11.674;2023-02-15T09:10:40;102283.84;;;0.57
60731;BMP280;46580;52.114;11.674;2023-02-15T09:13:07;102281.41;;;0.48
60731;BMP280;46580;52.114;11.674;2023-02-15T09:15:32;102280.41;;;0.61
60731;BMP280;46580;52.114;11.674;2023-02-15T09:17:59;102278.28;;;0.95
60731;BMP280;46580;52.114;11.674;2023-02-15T09:20:29;102281.72;;;0.93
60731;BMP280;46580;52.114;11.674;2023-02-15T09:22:54;102270.63;;;0.99
60731;BMP280;46580;52.114;11.674;2023-02-15T09:25:21;102268.00;;;1.07
60731;BMP280;46580;52.114;11.674;2023-02-15T09:27:47;102272.22;;;1.05
60731;BMP280;46580;52.114;11.674;2023-02-15T09:30:13;102272.63;;;0.77
60731;BMP280;46580;52.114;11.674;2023-02-15T09:32:39;102276.25;;;0.57
60731;BMP280;46580;52.114;11.674;2023-02-15T09:35:05;102275.28;;;0.67
60731;BMP280;46580;52.114;11.674;2023-02-15T09:37:30;102266.78;;;0.72
60731;BMP280;46580;52.114;11.674;2023-02-15T09:39:57;102266.47;;;0.94
60731;BMP280;46580;52.114;11.674;2023-02-15T09:47:46;102260.09;;;1.26
60731;BMP280;46580;52.114;11.674;2023-02-15T09:56:15;102260.94;;;1.26
60731;BMP280;46580;52.114;11.674;2023-02-15T10:06:31;102258.19;;;1.38
60731;BMP280;46580;52.114;11.674;2023-02-15T10:17:42;102260.94;;;1.26
60731;BMP280;46580;52.114;11.674;2023-02-15T10:20:28;102260.75;;;1.35
60731;BMP280;46580;52.114;11.674;2023-02-15T10:23:03;102266.00;;;1.26
60731;BMP280;46580;52.114;11.674;2023-02-15T10:28:16;102262.41;;;1.40
60731;BMP280;46580;52.114;11.674;2023-02-15T10:30:48;102259.41;;;1.68
60731;BMP280;46580;52.114;11.674;2023-02-15T10:33:40;102252.53;;;1.73
60731;BMP280;46580;52.114;11.674;2023-02-15T10:41:45;102247.97;;;1.92
60731;BMP280;46580;52.114;11.674;2023-02-15T10:44:33;102246.50;;;1.80
60731;BMP280;46580;52.114;11.674;2023-02-15T10:47:06;102245.31;;;1.97
60731;BMP280;46580;52.114;11.674;2023-02-15T10:55:16;102232.13;;;2.23
60731;BMP280;46580;52.114;11.674;2023-02-15T10:57:57;102225.91;;;2.37
60731;BMP280;46580;52.114;11.674;2023-02-15T11:08:24;102209.63;;;2.47
60731;BMP280;46580;52.114;11.674;2023-02-15T11:11:00;102220.66;;;2.44
60731;BMP280;46580;52.114;11.674;2023-02-15T11:13:32;102219.97;;;2.38
60731;BMP280;46580;52.114;11.674;2023-02-15T11:16:11;102230.19;;;2.35
60731;BMP280;46580;52.114;11.674;2023-02-15T11:18:41;102216.44;;;2.43
60731;BMP280;46580;52.114;11.674;2023-02-15T11:23:36;102226.66;;;2.82
60731;BMP280;46580;52.114;11.674;2023-02-15T11:26:10;102211.09;;;2.95
60731;BMP280;46580;52.114;11.674;2023-02-15T11:28:43;102205.59;;;3.11
60731;BMP280;46580;52.114;11.674;2023-02-15T11:31:17;102203.16;;;3.08
60731;BMP280;46580;52.114;11.674;2023-02-15T11:33:47;102200.59;;;3.08
60731;BMP280;46580;52.114;11.674;2023-02-15T11:36:21;102197.59;;;2.92
60731;BMP280;46580;52.114;11.674;2023-02-15T11:38:50;102186.34;;;3.01
60731;BMP280;46580;52.114;11.674;2023-02-15T11:41:21;102193.16;;;2.99
60731;BMP280;46580;52.114;11.674;2023-02-15T11:43:58;102187.53;;;3.23
60731;BMP280;46580;52.114;11.674;2023-02-15T11:46:26;102183.81;;;3.35
60731;BMP280;46580;52.114;11.674;2023-02-15T11:48:52;102168.75;;;3.27
60731;BMP280;46580;52.114;11.674;2023-02-15T11:51:20;102170.09;;;3.41
60731;BMP280;46580;52.114;11.674;2023-02-15T11:53:47;102167.03;;;3.60
60731;BMP280;46580;52.114;11.674;2023-02-15T11:56:19;102172.50;;;3.47
60731;BMP280;46580;52.114;11.674;2023-02-15T11:58:55;102169.22;;;3.09
60731;BMP280;46580;52.114;11.674;2023-02-15T12:01:30;102164.31;;;3.00
60731;BMP280;46580;52.114;11.674;2023-02-15T12:04:04;102160.25;;;2.94
60731;BMP280;46580;52.114;11.674;2023-02-15T12:06:34;102155.69;;;3.07
60731;BMP280;46580;52.114;11.674;2023-02-15T12:11:37;102137.53;;;3.53
60731;BMP280;46580;52.114;11.674;2023-02-15T12:14:06;102134.44;;;3.73
60731;BMP280;46580;52.114;11.674;2023-02-15T12:16:40;102121.41;;;4.12
60731;BMP280;46580;52.114;11.674;2023-02-15T12:19:16;102132.47;;;4.41
60731;BMP280;46580;52.114;11.674;2023-02-15T12:21:49;102126.22;;;4.77
60731;BMP280;46580;52.114;11.674;2023-02-15T12:24:32;102122.69;;;5.06
60731;BMP280;46580;52.114;11.674;2023-02-15T12:27:12;102114.75;;;5.15
60731;BMP280;46580;52.114;11.674;2023-02-15T12:29:41;102114.03;;;5.36
60731;BMP280;46580;52.114;11.674;2023-02-15T12:32:30;102115.41;;;5.45
60731;BMP280;46580;52.114;11.674;2023-02-15T12:35:01;102115.00;;;5.81
60731;BMP280;46580;52.114;11.674;2023-02-15T12:37:29;102113.69;;;6.16
60731;BMP280;46580;52.114;11.674;2023-02-15T12:40:04;102106.25;;;6.32
60731;BMP280;46580;52.114;11.674;2023-02-15T12:42:44;102100.31;;;6.53
60731;BMP280;46580;52.114;11.674;2023-02-15T12:47:48;102085.41;;;6.41
60731;BMP280;46580;52.114;11.674;2023-02-15T12:50:33;102086.63;;;6.75
60731;BMP280;46580;52.114;11.674;2023-02-15T12:53:32;102079.81;;;6.95
60731;BMP280;46580;52.114;11.674;2023-02-15T12:56:01;102079.09;;;7.12
60731;BMP280;46580;52.114;11.674;2023-02-15T12:58:32;102070.91;;;7.24
60731;BMP280;46580;52.114;11.674;2023-02-15T13:01:18;102060.25;;;7.52
60731;BMP280;46580;52.114;11.674;2023-02-15T13:04:04;102072.63;;;7.43
60731;BMP280;46580;52.114;11.674;2023-02-15T13:06:33;102063.19;;;7.63
60731;BMP280;46580;52.114;11.674;2023-02-15T13:09:34;102062.53;;;7.78
60731;BMP280;46580;52.114;11.674;2023-02-15T13:12:23;102060.16;;;7.73
60731;BMP280;46580;52.114;11.674;2023-02-15T13:14:52;102064.06;;;8.01
60731;BMP280;46580;52.114;11.674;2023-02-15T13:17:28;102050.72;;;8.11
60731;BMP280;46580;52.114;11.674;2023-02-15T13:20:00;102047.72;;;8.38
60731;BMP280;46580;52.114;11.674;2023-02-15T13:22:43;102053.06;;;8.52
60731;BMP280;46580;52.114;11.674;2023-02-15T13:25:14;102053.81;;;8.54
60731;BMP280;46580;52.114;11.674;2023-02-15T13:27:48;102051.69;;;8.79
60731;BMP280;46580;52.114;11.674;2023-02-15T13:30:31;102043.41;;;9.08
60731;BMP280;46580;52.114;11.674;2023-02-15T13:33:04;102044.91;;;9.11
60731;BMP280;46580;52.114;11.674;2023-02-15T13:35:39;102051.91;;;9.25
60731;BMP280;46580;52.114;11.674;2023-02-15T13:39:06;102040.16;;;9.21
60731;BMP280;46580;52.114;11.674;2023-02-15T13:41:27;102036.72;;;9.04
60731;BMP280;46580;52.114;11.674;2023-02-15T13:47:01;102022.63;;;9.28
60731;BMP280;46580;52.114;11.674;2023-02-15T13:50:00;102025.63;;;9.03
60731;BMP280;46580;52.114;11.674;2023-02-15T13:52:27;102018.50;;;9.25
60731;BMP280;46580;52.114;11.674;2023-02-15T14:05:53;102008.03;;;9.29
60731;BMP280;46580;52.114;11.674;2023-02-15T14:11:35;102015.19;;;9.39
60731;BMP280;46580;52.114;11.674;2023-02-15T14:17:40;101999.16;;;9.34
60731;BMP280;46580;52.114;11.674;2023-02-15T14:20:17;101993.41;;;9.46
60731;BMP280;46580;52.114;11.674;2023-02-15T14:22:51;101993.75;;;9.55
60731;BMP280;46580;52.114;11.674;2023-02-15T14:25:30;101989.84;;;9.64
60731;BMP280;46580;52.114;11.674;2023-02-15T14:28:22;101989.06;;;9.63
60731;BMP280;46580;52.114;11.674;2023-02-15T14:30:53;101983.91;;;9.63
60731;BMP280;46580;52.114;11.674;2023-02-15T14:33:36;101986.66;;;9.44
60731;BMP280;46580;52.114;11.674;2023-02-15T14:36:05;101977.06;;;9.47
60731;BMP280;46580;52.114;11.674;2023-02-15T14:41:36;101970.22;;;9.63
60731;BMP280;46580;52.114;11.674;2023-02-15T14:44:32;101973.88;;;9.74
60731;BMP280;46580;52.114;11.674;2023-02-15T14:47:28;101978.84;;;9.62
60731;BMP280;46580;52.114;11.674;2023-02-15T14:49:58;101986.25;;;9.51
60731;BMP280;46580;52.114;11.674;2023-02-15T14:52:25;101985.31;;;9.37
60731;BMP280;46580;52.114;11.674;2023-02-15T14:54:55;101989.66;;;9.36
60731;BMP280;46580;52.114;11.674;2023-02-15T14:57:22;101993.97;;;9.51
60731;BMP280;46580;52.114;11.674;2023-02-15T15:02:24;101997.50;;;9.17
60731;BMP280;46580;52.114;11.674;2023-02-15T15:05:01;102000.31;;;9.12
60731;BMP280;46580;52.114;11.674;2023-02-15T15:07:51;101995.31;;;9.26
60731;BMP280;46580;52.114;11.674;2023-02-15T15:25:49;101992.25;;;9.20
60731;BMP280;46580;52.114;11.674;2023-02-15T15:48:38;101958.84;;;9.03
60731;BMP280;46580;52.114;11.674;2023-02-15T15:51:18;101961.91;;;8.94
60731;BMP280;46580;52.114;11.674;2023-02-15T15:53:47;101968.81;;;8.76
60731;BMP280;46580;52.114;11.674;2023-02-15T15:56:19;101958.44;;;8.62
60731;BMP280;46580;52.114;11.674;2023-02-15T15:58:52;101960.59;;;8.53
60731;BMP280;46580;52.114;11.674;2023-02-15T16:01:25;101956.91;;;8.42
60731;BMP280;46580;52.114;11.674;2023-02-15T16:03:53;101952.34;;;8.30
60731;BMP280;46580;52.114;11.674;2023-02-15T16:08:57;101957.22;;;8.18
60731;BMP280;46580;52.114;11.674;2023-02-15T16:11:25;101957.09;;;8.21
60731;BMP280;46580;52.114;11.674;2023-02-15T16:13:52;101967.16;;;8.07
60731;BMP280;46580;52.114;11.674;2023-02-15T16:16:24;101970.19;;;7.97
60731;BMP280;46580;52.114;11.674;2023-02-15T16:18:51;101961.41;;;8.02
60731;BMP280;46580;52.114;11.674;2023-02-15T16:21:21;101960.44;;;8.05
60731;BMP280;46580;52.114;11.674;2023-02-15T16:29:41;101971.88;;;7.42
60731;BMP280;46580;52.114;11.674;2023-02-15T16:32:22;101969.97;;;7.28
60731;BMP280;46580;52.114;11.674;2023-02-15T16:34:54;101971.81;;;7.06
60731;BMP280;46580;52.114;11.674;2023-02-15T16:37:22;101971.66;;;7.29
60731;BMP280;46580;52.114;11.674;2023-02-15T16:39:49;101971.69;;;7.09
60731;BMP280;46580;52.114;11.674;2023-02-15T16:42:16;101965.78;;;7.07
60731;BMP280;46580;52.114;11.674;2023-02-15T16:44:44;101965.28;;;7.00
60731;BMP280;46580;52.114;11.674;2023-02-15T16:47:22;101967.97;;;6.77
60731;BMP280;46580;52.114;11.674;2023-02-15T16:49:51;101976.44;;;6.79
60731;BMP280;46580;52.114;11.674;2023-02-15T16:52:25;101970.41;;;7.00
60731;BMP280;46580;52.114;11.674;2023-02-15T16:54:55;101961.84;;;7.01